Weather observations for the past three days for
Middleton Island Airport
Imperial (Metric)
Date Time (akdt) Wind (mph) Vis. (mi.) Weather Sky Cond. Temperature (ºF) Relative Humidity Wind Chill (°F) Heat Index (°F) Pressure Precipitation (in)
Air Dwpt 6 hour altimeter (in) sea level (mb) 1 hr 3 hr 6 hr
Max. Min.
04 17:56 E 28 G 35 8.00 Overcast and Windy BKN020 OVC025 42.1 39.9 92% 32 29.79 1008.8
04 16:56 E 23 G 29 5.00 Light Rain Fog/Mist and Breezy OVC036 42.1 41 96% 33 29.83 1010.1 0.03
04 15:56 E 26 G 37 5.00 Light Rain Fog/Mist and Windy SCT007 BKN023 OVC050 42.1 42.1 43 42.1 100% 33 29.85 1010.9 0.04 0.16
04 14:56 E 25 G 35 7.00 Light Rain and Breezy OVC049 42.1 41 96% 33 29.86 1011.2 0.01
04 13:56 E 24 G 31 9.00 Overcast and Breezy BKN060 OVC075 42.1 41 96% 33 29.89 1012.2 0.01
04 12:56 E 26 G 33 3.00 Light Rain Fog/Mist and Windy FEW016 SCT038 OVC055 42.1 41 96% 33 29.93 1013.7 0.05 0.1
04 11:56 E 23 4.00 Rain Fog/Mist and Breezy OVC016 42.1 42.1 100% 33 29.97 1014.9 0.03
04 10:56 E 22 2.50 Light Rain Fog/Mist and Breezy OVC003 42.1 42.1 100% 33 29.98 1015.4 0.02
04 09:56 E 21 3.00 Fog/Mist and Breezy OVC003 42.1 42.1 43 41 100% 34 30.01 1016.3
04 08:56 E 16 4.00 Fog/Mist OVC003 42.1 42.1 100% 35 30.03 1016.8
04 07:56 E 17 3.00 Fog/Mist OVC003 42.1 42.1 100% 34 30.05 1017.6
04 06:56 E 16 2.50 Fog/Mist OVC003 42.1 42.1 100% 35 30.06 1018.0
04 05:56 E 17 2.00 Fog/Mist OVC003 41 41 100% 33 30.07 1018.4
04 04:56 E 15 1.25 Fog/Mist OVC003 41 41 100% 34 30.08 1018.7
04 03:56 E 14 0.50 Fog OVC003 41 41 41 41 100% 34 30.1 1019.1 0.07
04 02:56 SE 14 1.00 Fog/Mist OVC003 41 41 100% 34 30.11 1019.7 0.01
04 01:56 SE 15 4.00 Light Rain Fog/Mist OVC003 41 41 100% 34 30.12 1019.9 0.01
04 00:56 SE 15 4.00 Fog/Mist OVC003 41 41 100% 34 30.12 1020.0 0.01 0.05
03 23:56 SE 16 2.00 Light Rain OVC003 41 0 0% 33 30.13 1020.1 0.01
03 22:56 SE 15 6.00 Light Rain OVC003 41 0 0% 34 30.12 1020.0 0.03
03 21:56 SE 16 2.50 Light Rain Fog/Mist OVC003 41 41 43 41 100% 33 30.11 1019.7 0.01 0.21
03 20:56 SE 17 4.00 Light Rain Fog/Mist OVC003 41 41 100% 33 30.11 1019.5 0.04
03 19:56 SE 16 3.00 Light Rain Fog/Mist OVC003 42.1 42.1 100% 35 30.11 1019.6 0.02
03 18:56 SE 15 3.00 Light Rain Fog/Mist OVC003 42.1 42.1 100% 35 30.11 1019.6 0.04 0.14
03 17:56 SE 16 3.00 Light Rain Fog/Mist OVC003 42.1 42.1 100% 35 30.11 1019.5 0.06
03 16:56 SE 17 5.00 Light Rain Fog/Mist OVC003 42.1 42.1 100% 34 30.11 1019.6 0.04
03 15:56 SE 15 0.75 Light Rain Fog/Mist OVC003 42.1 42.1 43 42.1 100% 35 30.12 1019.9 0.02 0.08
03 14:56 SE 13 0.50 Light Rain Fog OVC003 43 43 100% 37 30.13 1020.2 0.01
03 13:56 SE 13 0.50 Light Rain Fog OVC003 43 43 100% 37 30.13 1020.2 0.03
03 12:56 SE 13 0.75 Light Rain Fog/Mist OVC003 43 43 100% 37 30.12 1019.8 0.01 0.02
03 11:56 SE 13 1.50 Light Rain Fog/Mist OVC003 43 43 100% 37 30.11 1019.5 0.01
03 10:56 SE 13 1.75 Light Rain Fog/Mist OVC003 42.1 42.1 100% 36 30.1 1019.2
03 09:56 SE 12 1.50 Light Rain Fog/Mist OVC003 42.1 42.1 42.1 39 100% 36 30.09 1019.0 0.02 0.14
03 08:56 SE 14 1.00 Light Rain Fog/Mist OVC003 42.1 42.1 100% 35 30.08 1018.8 0.02
03 07:56 E 16 5.00 Light Rain Fog/Mist OVC003 41 41 100% 33 30.09 1018.8 0.02
03 06:56 E 24 6.00 Light Rain Fog/Mist and Breezy OVC005 39.9 39.9 100% 30 30.09 1019.0 0.03 0.08
03 05:56 E 26 G 32 10.00 Light Rain and Windy OVC009 39 37.9 96% 28 30.11 1019.7 0.03
03 04:56 E 26 6.00 Light Rain Fog/Mist and Windy OVC009 39 37.9 96% 28 30.13 1020.2 0.02
03 03:56 E 28 G 31 9.00 Light Rain and Windy OVC009 39 37 39.9 37.9 93% 28 30.15 1021.1 0.03 0.15
03 02:56 E 22 G 30 8.00 Light Rain and Breezy BKN009 OVC013 37.9 37 97% 28 30.18 1022.0 0.03
03 01:56 E 24 7.00 Light Rain and Breezy BKN009 OVC014 37.9 37 97% 28 30.19 1022.3 0.03
03 00:56 E 18 9.00 Light Rain OVC009 39 37 93% 30 30.21 1022.9 0.03 0.06
02 23:56 E 15 9.00 Light Rain BKN010 OVC015 39 37.9 96% 31 30.22 1023.2 0.03
02 22:56 SE 17 10.00 Light Rain BKN008 OVC034 39.9 37.9 93% 32 30.22 1023.3
02 21:56 SE 16 10.00 Light Rain BKN006 OVC012 39.9 39 43 39.9 97% 32 30.22 1023.3
02 20:56 SE 17 10.00 Overcast BKN009 OVC013 39.9 39 97% 32 30.22 1023.3
02 19:56 E 15 7.00 Overcast BKN008 OVC017 41 39 93% 34 30.21 1023.0
02 18:56 SE 12 10.00 Overcast BKN008 OVC015 41 39 93% 35 30.22 1023.2
02 17:56 SE 9 10.00 Overcast BKN009 OVC013 42.1 39 89% 37 30.23 1023.6
02 16:56 S 13 10.00 Overcast BKN009 OVC028 42.1 39 89% 36 30.21 1023.1
02 15:56 S 13 10.00 Overcast OVC009 43 39.9 44.1 43 89% 37 30.21 1023.1
02 14:56 S 13 9.00 Overcast OVC009 43 39.9 89% 37 30.21 1023.1
02 13:56 S 14 9.00 Overcast FEW009 OVC027 44.1 41 89% 38 30.2 1022.7
02 12:56 S 15 G 18 8.00 Overcast FEW009 OVC029 44.1 41 89% 38 30.19 1022.2
02 11:56 S 15 6.00 Fog/Mist FEW009 OVC029 44.1 41 89% 38 30.17 1021.6
02 10:56 S 16 7.00 Overcast BKN025 OVC029 44.1 41 89% 37 30.13 1020.4
02 09:56 S 15 9.00 Overcast OVC027 43 39.9 43 42.1 89% 36 30.1 0.0
02 08:56 S 13 9.00 Overcast OVC029 43 39 86% 37 30.07 0.0
02 07:56 S 13 9.00 Overcast OVC029 42.1 37.9 85% 36 30.04 0.0
02 06:56 SW 10 10.00 Overcast SCT028 OVC033 42.1 37 82% 37 30.02 1016.7
02 05:56 SW 10 8.00 Overcast BKN025 OVC030 42.1 37.9 85% 37 30.01 1016.2
02 04:56 SW 14 G 22 10.00 Overcast OVC025 42.1 37 82% 35 29.97 1014.9
02 03:56 SW 12 7.00 Overcast OVC018 42.1 39 42.1 41 89% 36 29.94 1014.0 0.01
02 02:56 SW 12 8.00 Overcast OVC020 42.1 39 89% 36 29.92 1013.2
02 01:56 SW 10 G 18 8.00 Overcast OVC016 42.1 39.9 92% 37 29.88 1011.8
02 00:56 SW 14 G 23 10.00 Overcast OVC016 42.1 39.9 92% 35 29.84 1010.3 0.01
01 23:56 SW 12 9.00 Mostly Cloudy SCT014 BKN031 BKN039 41 41 100% 35 29.79 1008.7
01 22:56 SW 12 1.50 Light Rain Fog/Mist OVC003 42.1 42.1 100% 36 29.75 1007.3 0.01
01 21:56 S 12 3.00 Light Rain OVC003 0 0 0% 29.7 0.0 0.05 0.79
01 20:56 SE 17 1.25 Light Rain OVC003 0 0 0% 29.67 0.0 0.09
01 19:56 SE 25 G 32 2.00 Light Rain and Breezy OVC003 0 0 0% 29.66 0.0 0.1
01 18:56 SE 28 G 36 1.75 Light Rain Fog/Mist and Windy OVC003 41 41 100% 31 29.67 1004.5 0.15 0.55
Date Time (akdt) Wind (mph) Vis. (mi.) Weather Sky Cond. Air Dwpt Max. Min. Relative Humidity Wind Chill (°F) Heat Index (°F) altimeter (in) sea level (mb) 1 hr 3 hr 6 hr
6 hour
Temperature (ºF) Pressure Precipitation (in)